Time;durP1;ratioP1;P1;durP2;ratioP2;P2;SDS_P1;SDS_P2;PMS_P1;PMS_P2;Temp;Humidity;BMP_temperature;BMP_pressure;BME280_temperature;BME280_humidity;BME280_pressure;Samples;Min_cycle;Max_cycle;Signal;HPM_P1;HPM_P2
2022/04/06 00:00:39;;;;;;;5.43;5.03;;;;;;;9.99;100.00;99638.16;5058691;28;20631;-58
2022/04/06 00:03:04;;;;;;;4.90;4.50;;;;;;;9.98;100.00;99639.03;5056411;28;20651;-57
2022/04/06 00:05:30;;;;;;;4.73;4.33;;;;;;;10.00;100.00;99633.81;5077112;28;20244;-57
2022/04/06 00:07:55;;;;;;;5.27;4.87;;;;;;;10.02;100.00;99621.72;5063968;28;20193;-58
2022/04/06 00:10:20;;;;;;;5.30;4.80;;;;;;;10.02;100.00;99627.75;5058688;28;20183;-56
2022/04/06 00:12:46;;;;;;;6.60;4.83;;;;;;;10.02;100.00;99620.00;5059155;28;20190;-57
2022/04/06 00:15:11;;;;;;;5.90;5.40;;;;;;;10.03;100.00;99619.13;5061869;28;20219;-56
2022/04/06 00:17:38;;;;;;;5.27;4.80;;;;;;;10.03;100.00;99624.28;5057533;28;20271;-57
2022/04/06 00:20:07;;;;;;;5.37;4.97;;;;;;;10.04;100.00;99617.38;5063447;28;20293;-58
2022/04/06 00:22:33;;;;;;;4.80;4.40;;;;;;;10.03;100.00;99619.13;5068597;28;20715;-56
2022/04/06 00:24:58;;;;;;;5.23;4.73;;;;;;;10.03;100.00;99615.66;5064762;28;20182;-58
2022/04/06 00:27:24;;;;;;;5.67;5.17;;;;;;;10.05;100.00;99619.09;5056523;28;20194;-57
2022/04/06 00:29:50;;;;;;;5.40;4.90;;;;;;;10.07;100.00;99625.91;5065521;28;20572;-56
2022/04/06 00:32:15;;;;;;;5.20;4.70;;;;;;;10.07;100.00;99619.91;5057935;28;20243;-57
2022/04/06 00:37:25;;;;;;;5.27;4.77;;;;;;;10.11;100.00;99613.81;5059474;28;20205;-56
2022/04/06 00:39:50;;;;;;;5.47;5.07;;;;;;;10.10;100.00;99613.81;5057349;28;20674;-56
2022/04/06 00:42:15;;;;;;;5.87;5.37;;;;;;;10.15;100.00;99599.09;5059218;28;20276;-56
2022/04/06 00:44:41;;;;;;;6.03;5.43;;;;;;;10.15;100.00;99599.09;5057632;28;20395;-57
2022/04/06 00:47:07;;;;;;;5.60;5.10;;;;;;;10.15;100.00;99599.94;5054666;28;20535;-57
2022/04/06 00:49:33;;;;;;;5.97;4.87;;;;;;;10.16;100.00;99603.38;5061764;28;20256;-57
2022/04/06 00:52:06;;;;;;;5.13;4.73;;;;;;;10.13;100.00;99598.25;5059025;28;20193;-57
2022/04/06 00:54:33;;;;;;;5.17;4.77;;;;;;;10.12;100.00;99589.66;5073519;28;20625;-57
2022/04/06 00:56:59;;;;;;;5.23;4.70;;;;;;;10.13;100.00;99595.69;5079401;28;20189;-57
2022/04/06 00:59:27;;;;;;;5.20;4.80;;;;;;;10.10;100.00;99581.09;5056673;28;20213;-58
2022/04/06 01:01:53;;;;;;;5.17;4.67;;;;;;;10.10;100.00;99587.97;5056195;28;20763;-57
2022/04/06 01:04:19;;;;;;;5.43;5.00;;;;;;;10.11;100.00;99582.78;5057898;28;20182;-57
2022/04/06 01:06:44;;;;;;;5.67;5.13;;;;;;;10.12;100.00;99593.97;5046574;28;20533;-57
2022/04/06 01:09:10;;;;;;;6.23;5.37;;;;;;;10.10;100.00;99581.09;5055301;28;20728;-57
2022/04/06 01:11:36;;;;;;;5.33;4.83;;;;;;;10.10;100.00;99581.09;5060314;28;20193;-56
2022/04/06 01:14:02;;;;;;;5.93;5.33;;;;;;;10.09;100.00;99574.22;5069971;28;20267;-59
2022/04/06 01:16:29;;;;;;;5.63;5.13;;;;;;;10.08;100.00;99575.09;5072389;28;20609;-56
2022/04/06 01:18:54;;;;;;;5.53;5.03;;;;;;;10.08;100.00;99572.50;5062764;28;20304;-56
2022/04/06 01:21:20;;;;;;;5.50;4.90;;;;;;;10.07;100.00;99576.81;5062903;28;20641;-56
2022/04/06 01:23:46;;;;;;;5.77;5.27;;;;;;;10.09;100.00;99575.91;5066063;28;20188;-56
2022/04/06 01:26:13;;;;;;;5.70;5.20;;;;;;;10.08;100.00;99577.66;5061239;28;20550;-56
2022/04/06 01:28:40;;;;;;;6.27;5.67;;;;;;;10.06;100.00;99577.69;5062651;28;20208;-57
2022/04/06 01:31:05;;;;;;;6.33;5.73;;;;;;;10.05;100.00;99576.00;5059393;28;20245;-56
2022/04/06 01:33:31;;;;;;;6.33;5.73;;;;;;;10.05;100.00;99572.56;5061252;28;20181;-58
2022/04/06 01:35:58;;;;;;;6.10;5.60;;;;;;;10.02;100.00;99580.34;5059431;28;20218;-59
2022/04/06 01:38:24;;;;;;;6.73;6.07;;;;;;;10.03;100.00;99571.72;5055758;28;20214;-58
2022/04/06 01:40:50;;;;;;;6.27;5.73;;;;;;;10.03;100.00;99569.13;5057228;28;20261;-57
2022/04/06 01:43:16;;;;;;;5.27;4.83;;;;;;;10.01;100.00;99569.19;5066737;28;20182;-57
2022/04/06 01:45:41;;;;;;;6.20;5.60;;;;;;;10.02;100.00;99568.31;5059773;28;20186;-59
2022/04/06 01:48:07;;;;;;;6.20;5.60;;;;;;;10.01;100.00;99561.41;5058302;28;20711;-57
2022/04/06 01:53:17;;;;;;;6.10;5.60;;;;;;;10.00;100.00;99566.59;5062942;28;20669;-56
2022/04/06 01:55:42;;;;;;;6.33;5.47;;;;;;;10.04;100.00;99563.97;5058110;28;20205;-58
2022/04/06 01:58:08;;;;;;;5.30;4.80;;;;;;;10.00;100.00;99554.53;5065662;28;20178;-58
2022/04/06 02:00:33;;;;;;;6.10;5.60;;;;;;;10.00;100.00;99562.31;5064834;28;20186;-56
2022/04/06 02:03:00;;;;;;;6.10;5.57;;;;;;;10.01;100.00;99556.25;5058217;28;20185;-56
2022/04/06 02:05:31;;;;;;;6.17;5.20;;;;;;;9.99;100.00;99545.09;5056912;28;20174;-57
2022/04/06 02:07:56;;;;;;;6.10;5.50;;;;;;;10.00;100.00;99545.91;5055147;28;20211;-57
2022/04/06 02:10:22;;;;;;;6.07;5.57;;;;;;;9.99;100.00;99545.09;5059809;28;20631;-58
2022/04/06 02:12:48;;;;;;;5.70;5.20;;;;;;;10.00;100.00;99540.75;5058723;28;20183;-57
2022/04/06 02:15:14;;;;;;;5.73;5.23;;;;;;;9.98;100.00;99538.22;5058039;28;20240;-57
2022/04/06 02:17:40;;;;;;;5.43;4.93;;;;;;;10.00;100.00;99539.03;5071603;28;20273;-56
2022/04/06 02:20:06;;;;;;;6.00;5.50;;;;;;;10.00;100.00;99538.16;5057585;28;20289;-59
2022/04/06 02:22:31;;;;;;;4.97;4.57;;;;;;;9.98;100.00;99533.03;5057777;28;20233;-56
2022/04/06 02:24:56;;;;;;;5.33;4.87;;;;;;;9.98;100.00;99537.38;5058959;28;20247;-57
2022/04/06 02:27:22;;;;;;;6.17;5.60;;;;;;;9.97;100.00;99533.09;5063232;28;20268;-57
2022/04/06 02:29:48;;;;;;;5.27;4.77;;;;;;;9.99;100.00;99528.72;5062068;28;20661;-56
2022/04/06 02:32:13;;;;;;;5.53;5.03;;;;;;;9.97;100.00;99533.91;5055818;28;20186;-56
2022/04/06 02:34:39;;;;;;;5.73;5.27;;;;;;;9.95;100.00;99532.25;5056160;28;20650;-57
2022/04/06 02:37:05;;;;;;;5.60;5.10;;;;;;;9.93;100.00;99529.69;5056605;28;20213;-56
2022/04/06 02:39:30;;;;;;;5.77;5.17;;;;;;;9.93;100.00;99536.59;5060173;28;20205;-57
2022/04/06 02:41:56;;;;;;;5.97;5.47;;;;;;;9.91;100.00;99526.25;5054858;28;20566;-57
2022/04/06 02:44:21;;;;;;;5.43;5.00;;;;;;;9.90;100.00;99517.66;5062169;28;20195;-57
2022/04/06 02:46:50;;;;;;;6.00;5.50;;;;;;;9.91;100.00;99516.78;5052963;28;20179;-57
2022/04/06 02:49:16;;;;;;;6.10;5.50;;;;;;;9.93;100.00;99516.75;5057612;28;20202;-57
2022/04/06 02:51:41;;;;;;;5.43;4.93;;;;;;;9.90;100.00;99517.66;5061056;28;20178;-57
2022/04/06 02:54:07;;;;;;;5.53;5.03;;;;;;;9.90;100.00;99522.84;5057591;28;20255;-58
2022/04/06 02:56:33;;;;;;;5.83;5.33;;;;;;;9.93;100.00;99523.66;5056290;28;20221;-57
2022/04/06 02:59:00;;;;;;;5.23;4.83;;;;;;;9.94;100.00;99523.63;5071744;28;20723;-57
2022/04/06 03:01:25;;;;;;;5.37;4.87;;;;;;;9.93;100.00;99514.16;5054690;28;20282;-56
2022/04/06 03:03:51;;;;;;;6.00;5.40;;;;;;;9.94;100.00;99509.88;5055349;28;20271;-57
2022/04/06 03:06:16;;;;;;;5.43;4.77;;;;;;;9.91;100.00;99505.59;5056356;28;20258;-57
2022/04/06 03:08:42;;;;;;;5.00;4.60;;;;;;;9.94;100.00;99512.44;5052577;28;20285;-57
2022/04/06 03:11:08;;;;;;;4.97;4.57;;;;;;;9.92;100.00;99512.47;5057985;28;20186;-56
2022/04/06 03:13:33;;;;;;;5.30;4.80;;;;;;;9.91;100.00;99503.00;5061110;28;20193;-56
2022/04/06 03:15:58;;;;;;;5.00;4.60;;;;;;;9.90;100.00;99496.16;5055878;28;20217;-57
2022/04/06 03:18:24;;;;;;;5.50;5.00;;;;;;;9.92;100.00;99496.94;5058015;28;20210;-57
2022/04/06 03:20:51;;;;;;;4.77;4.37;;;;;;;9.91;100.00;99498.69;5058340;28;20185;-58
2022/04/06 03:23:17;;;;;;;5.60;4.50;;;;;;;9.91;100.00;99493.53;5057966;28;20228;-57
2022/04/06 03:25:43;;;;;;;5.37;4.87;;;;;;;9.93;100.00;99495.25;5059807;28;20203;-58
2022/04/06 03:28:09;;;;;;;5.03;4.63;;;;;;;9.93;100.00;99495.25;5065638;28;20183;-58
2022/04/06 03:30:35;;;;;;;4.83;4.43;;;;;;;9.90;100.00;99491.00;5060395;28;20247;-57
2022/04/06 03:33:01;;;;;;;4.97;4.47;;;;;;;9.91;100.00;99488.38;5057845;28;20194;-56
2022/04/06 03:35:26;;;;;;;5.77;4.50;;;;;;;9.90;100.00;99489.25;5077341;28;20201;-56
2022/04/06 03:37:51;;;;;;;4.90;4.50;;;;;;;9.89;100.00;99492.72;5066011;28;20200;-57
2022/04/06 03:40:17;;;;;;;5.03;4.60;;;;;;;9.87;100.00;99489.28;5062717;28;20216;-57
2022/04/06 03:42:43;;;;;;;5.13;4.70;;;;;;;9.89;100.00;99490.13;5068995;28;20184;-57
2022/04/06 03:45:09;;;;;;;5.10;4.70;;;;;;;9.89;100.00;99484.13;5061553;28;20182;-57
2022/04/06 03:47:35;;;;;;;5.80;4.90;;;;;;;9.87;100.00;99485.88;5061046;28;20689;-56
2022/04/06 03:50:01;;;;;;;5.03;4.60;;;;;;;9.86;100.00;99481.59;5067637;28;20205;-57
2022/04/06 03:52:29;;;;;;;5.10;4.53;;;;;;;9.86;100.00;99479.84;5067156;28;20186;-57
2022/04/06 03:54:55;;;;;;;5.70;5.10;;;;;;;9.87;100.00;99472.94;5068373;28;20228;-58
2022/04/06 03:57:21;;;;;;;5.40;4.90;;;;;;;9.85;100.00;99470.38;5061814;28;20654;-57
2022/04/06 03:59:46;;;;;;;5.90;5.40;;;;;;;9.85;100.00;99469.53;5064584;28;20206;-57
2022/04/06 04:02:12;;;;;;;5.40;5.00;;;;;;;9.84;100.00;99462.66;5061448;28;20186;-58
2022/04/06 04:04:38;;;;;;;6.00;5.50;;;;;;;9.86;100.00;99464.31;5056284;28;20194;-57
2022/04/06 04:07:06;;;;;;;5.50;5.00;;;;;;;9.85;100.00;99460.03;5063130;28;20216;-57
2022/04/06 04:09:32;;;;;;;5.23;4.83;;;;;;;9.84;100.00;99457.50;5059665;28;20255;-57
2022/04/06 04:11:58;;;;;;;5.87;5.37;;;;;;;9.84;100.00;99460.09;5060882;28;20193;-58
2022/04/06 04:14:23;;;;;;;6.03;5.43;;;;;;;9.83;100.00;99451.47;5075981;28;20552;-58
2022/04/06 04:16:49;;;;;;;6.30;5.70;;;;;;;9.82;100.00;99460.13;5067302;28;20202;-58
2022/04/06 04:19:15;;;;;;;6.30;5.70;;;;;;;9.82;100.00;99454.97;5063354;28;20217;-57
2022/04/06 04:21:42;;;;;;;14.37;13.07;;;;;;;9.82;100.00;99457.53;5065691;28;20193;-58
2022/04/06 04:24:10;;;;;;;9.27;8.47;;;;;;;9.82;100.00;99460.13;5062722;28;20193;-56
2022/04/06 04:26:38;;;;;;;7.13;6.50;;;;;;;9.80;100.00;99446.38;5063953;28;20182;-58
2022/04/06 04:29:04;;;;;;;7.97;7.17;;;;;;;9.82;100.00;99446.34;5063495;28;20265;-57
2022/04/06 04:31:30;;;;;;;6.80;6.10;;;;;;;9.80;100.00;99454.13;5062077;28;20182;-57
2022/04/06 04:33:56;;;;;;;6.10;5.50;;;;;;;9.79;100.00;99449.84;5069741;28;20621;-56
2022/04/06 04:36:22;;;;;;;5.83;5.37;;;;;;;9.82;100.00;99456.66;5058822;28;20217;-57
2022/04/06 04:38:47;;;;;;;5.83;5.33;;;;;;;9.81;100.00;99453.25;5059998;28;21002;-57
2022/04/06 04:41:13;;;;;;;6.80;6.20;;;;;;;9.79;100.00;99449.84;5065162;28;20183;-58
2022/04/06 04:43:38;;;;;;;6.40;5.77;;;;;;;9.81;100.00;99453.25;5059480;28;20653;-57
2022/04/06 04:46:04;;;;;;;6.00;5.50;;;;;;;9.80;100.00;99450.69;5058120;28;20187;-57
2022/04/06 04:48:30;;;;;;;6.03;5.53;;;;;;;9.79;100.00;99452.44;5058336;28;20206;-57
2022/04/06 04:50:55;;;;;;;6.40;5.80;;;;;;;9.79;100.00;99448.97;5056576;28;20197;-57
2022/04/06 04:53:21;;;;;;;5.53;5.03;;;;;;;9.80;100.00;99448.09;5062392;28;20196;-57
2022/04/06 04:55:46;;;;;;;5.93;5.43;;;;;;;9.80;100.00;99454.13;5063271;28;20230;-57
2022/04/06 04:58:11;;;;;;;8.27;7.47;;;;;;;9.80;100.00;99448.09;5058170;28;20214;-57
2022/04/06 05:00:37;;;;;;;7.63;6.93;;;;;;;9.80;100.00;99441.22;5061745;28;20346;-57
2022/04/06 05:03:02;;;;;;;7.13;6.53;;;;;;;9.81;100.00;99442.03;5060826;28;20201;-58
2022/04/06 05:05:28;;;;;;;7.00;6.40;;;;;;;9.81;100.00;99442.03;5059794;28;20677;-57
2022/04/06 05:07:53;;;;;;;6.30;5.70;;;;;;;9.81;100.00;99435.16;5061141;28;20188;-57
2022/04/06 05:10:19;;;;;;;6.00;5.50;;;;;;;9.83;100.00;99437.69;5058813;28;20649;-58
2022/04/06 05:12:45;;;;;;;6.50;5.53;;;;;;;9.83;100.00;99435.97;5057306;28;20790;-57
2022/04/06 05:15:12;;;;;;;5.67;5.10;;;;;;;9.83;100.00;99435.13;5059989;28;20204;-57
2022/04/06 05:17:38;;;;;;;6.90;5.37;;;;;;;9.86;100.00;99435.91;5061979;28;20189;-58
2022/04/06 05:20:05;;;;;;;6.17;5.23;;;;;;;9.92;100.00;99437.50;5062475;28;20820;-57
2022/04/06 05:22:31;;;;;;;5.43;5.03;;;;;;;9.91;100.00;99428.06;5055576;28;20190;-57
2022/04/06 05:24:56;;;;;;;5.37;4.87;;;;;;;9.92;100.00;99440.09;5055722;28;20178;-57
2022/04/06 05:27:21;;;;;;;5.43;4.93;;;;;;;9.93;100.00;99428.88;5059505;28;20186;-57
2022/04/06 05:29:47;;;;;;;5.90;4.53;;;;;;;9.97;100.00;99440.88;5054254;28;20300;-57
2022/04/06 05:32:13;;;;;;;5.97;4.40;;;;;;;10.00;100.00;99445.13;5057239;28;21931;-56
2022/04/06 05:34:38;;;;;;;6.13;4.30;;;;;;;9.99;100.00;99443.41;5064755;28;20668;-57
2022/04/06 05:37:04;;;;;;;5.70;4.57;;;;;;;9.97;100.00;99448.63;5054401;28;20190;-57
2022/04/06 05:39:29;;;;;;;5.10;4.50;;;;;;;10.00;100.00;99450.28;5062532;28;20209;-57
2022/04/06 05:41:55;;;;;;;5.53;5.03;;;;;;;10.00;100.00;99445.97;5061378;28;20654;-57
2022/04/06 05:44:21;;;;;;;6.10;4.80;;;;;;;10.02;100.00;99448.53;5066723;28;20197;-56
2022/04/06 05:46:46;;;;;;;5.77;5.23;;;;;;;10.02;100.00;99441.63;5058488;28;20184;-58
2022/04/06 05:49:12;;;;;;;5.70;5.20;;;;;;;10.04;100.00;99447.63;5056262;28;20263;-55
2022/04/06 05:51:37;;;;;;;5.13;4.67;;;;;;;10.05;100.00;99446.75;5056420;28;20251;-59
2022/04/06 05:54:03;;;;;;;4.50;4.10;;;;;;;10.03;100.00;99451.09;5058270;28;20253;-57
2022/04/06 05:56:31;;;;;;;5.50;4.93;;;;;;;10.03;100.00;99455.41;5052678;28;20211;-56
2022/04/06 05:58:57;;;;;;;6.93;5.60;;;;;;;10.02;100.00;99454.56;5055707;28;20296;-57
2022/04/06 06:01:23;;;;;;;5.93;5.33;;;;;;;10.04;100.00;99452.81;5060881;28;20178;-57
2022/04/06 06:03:49;;;;;;;6.07;5.57;;;;;;;10.05;100.00;99457.09;5066157;28;20604;-57
2022/04/06 06:06:14;;;;;;;5.93;5.43;;;;;;;10.09;100.00;99457.00;5058605;28;20304;-57
2022/04/06 06:08:40;;;;;;;6.67;5.97;;;;;;;10.10;100.00;99459.56;5064736;28;20201;-58
2022/04/06 06:11:05;;;;;;;6.90;6.20;;;;;;;10.12;100.00;99462.13;5065126;28;20178;-59
2022/04/06 06:13:32;;;;;;;6.30;5.70;;;;;;;10.16;100.00;99446.50;5063968;28;20186;-56
2022/04/06 06:15:57;;;;;;;7.30;6.53;;;;;;;10.20;100.00;99453.31;5059089;28;20217;-57
2022/04/06 06:18:24;;;;;;;7.80;7.10;;;;;;;10.22;100.00;99448.97;5062911;28;20202;-56
2022/04/06 06:20:50;;;;;;;6.80;6.20;;;;;;;10.29;100.00;99441.94;5062719;28;20199;-58
2022/04/06 06:23:15;;;;;;;7.70;7.00;;;;;;;10.34;100.00;99439.25;5071019;28;20187;-56
2022/04/06 06:25:40;;;;;;;7.33;6.73;;;;;;;10.39;100.00;99441.75;5079616;28;20209;-57
2022/04/06 06:28:06;;;;;;;6.50;6.00;;;;;;;10.42;100.00;99444.28;5067042;28;20200;-57
2022/04/06 06:30:32;;;;;;;6.33;5.83;;;;;;;10.48;100.00;99442.41;5058820;28;20209;-57
2022/04/06 06:32:57;;;;;;;6.73;6.13;;;;;;;10.56;100.00;99444.81;5061514;28;20189;-62
2022/04/06 06:35:24;;;;;;;6.53;5.93;;;;;;;10.72;100.00;99444.47;5059309;28;20210;-57
2022/04/06 06:37:53;;;;;;;6.90;6.30;;;;;;;10.80;100.00;99451.19;5059459;28;20214;-56
2022/04/06 06:40:19;;;;;;;6.20;5.70;;;;;;;10.81;100.00;99446.88;5053635;28;20305;-57
2022/04/06 06:42:45;;;;;;;7.43;6.73;;;;;;;10.82;100.00;99448.53;5057558;28;20190;-57
2022/04/06 06:45:11;;;;;;;6.53;6.00;;;;;;;10.84;100.00;99449.34;5052959;28;20646;-57
2022/04/06 06:47:37;;;;;;;6.43;5.83;;;;;;;10.90;100.00;99451.81;5052584;28;20454;-56
2022/04/06 06:50:03;;;;;;;7.53;6.13;;;;;;;11.00;100.00;99442.09;5050425;28;20679;-57
2022/04/06 06:52:28;;;;;;;6.50;5.90;;;;;;;11.08;100.00;99444.50;5050808;28;20212;-57
2022/04/06 06:54:54;;;;;;;6.60;6.00;;;;;;;11.36;100.00;99448.97;5051509;28;20195;-58
2022/04/06 06:57:19;;;;;;;7.47;6.03;;;;;;;11.59;100.00;99449.22;5066277;28;20200;-56
2022/04/06 06:59:45;;;;;;;6.20;5.70;;;;;;;11.62;100.00;99445.72;5057397;28;20639;-57
2022/04/06 07:02:10;;;;;;;16.80;6.00;;;;;;;11.61;100.00;99456.97;5059533;28;20275;-58
2022/04/06 07:04:36;;;;;;;5.93;5.40;;;;;;;11.55;100.00;99450.22;5053473;28;20206;-57
2022/04/06 07:07:02;;;;;;;6.20;5.60;;;;;;;11.48;100.00;99443.47;5051735;28;20194;-58
2022/04/06 07:09:27;;;;;;;5.80;5.13;;;;;;;11.47;100.00;99448.72;5055508;28;20495;-58
2022/04/06 07:11:52;;;;;;;6.67;6.07;;;;;;;11.44;100.00;99444.44;5054583;28;20217;-58
2022/04/06 07:14:18;;;;;;;5.87;5.30;;;;;;;11.49;100.00;99446.94;5053989;28;20190;-58
2022/04/06 07:16:44;;;;;;;5.13;4.73;;;;;;;11.53;100.00;99439.03;5057916;28;20260;-56
2022/04/06 07:19:09;;;;;;;7.23;5.20;;;;;;;11.63;100.00;99444.81;5062872;28;20222;-57
2022/04/06 07:21:35;;;;;;;5.90;4.90;;;;;;;11.73;100.00;99437.63;5059201;28;20190;-57
2022/04/06 07:24:02;;;;;;;5.23;4.73;;;;;;;11.81;100.00;99438.28;5055978;28;20263;-58
2022/04/06 07:26:27;;;;;;;4.87;4.47;;;;;;;11.90;100.00;99448.38;5054458;28;20305;-58
2022/04/06 07:28:53;;;;;;;5.57;4.43;;;;;;;11.94;100.00;99433.59;5054610;28;20698;-57
2022/04/06 07:31:18;;;;;;;5.07;4.63;;;;;;;11.94;100.00;99435.34;5062183;28;20202;-57
2022/04/06 07:33:44;;;;;;;5.27;4.23;;;;;;;11.94;100.00;99430.16;5060629;28;20186;-56
2022/04/06 07:36:09;;;;;;;4.37;3.97;;;;;;;11.97;100.00;99424.88;5054792;28;20273;-57
2022/04/06 07:38:35;;;;;;;5.10;4.60;;;;;;;12.04;100.00;99429.00;5052552;28;20285;-56
2022/04/06 07:41:00;;;;;;;4.53;4.13;;;;;;;12.16;100.00;99427.81;5054813;28;20201;-56
2022/04/06 07:43:25;;;;;;;4.37;4.00;;;;;;;12.36;100.00;99414.25;5056084;28;20206;-56
2022/04/06 07:45:51;;;;;;;4.10;3.70;;;;;;;12.67;100.00;99418.50;5056081;28;20188;-57
2022/04/06 07:48:16;;;;;;;4.83;4.33;;;;;;;12.99;100.00;99418.38;5057490;28;20216;-57
2022/04/06 07:50:42;;;;;;;4.73;4.33;;;;;;;13.14;100.00;99417.84;5059124;28;20199;-56
2022/04/06 07:53:07;;;;;;;5.00;4.03;;;;;;;13.25;100.00;99407.94;5054267;28;20243;-57
2022/04/06 07:55:33;;;;;;;4.77;3.77;;;;;;;13.34;100.00;99418.91;5054095;28;20626;-56
2022/04/06 07:57:58;;;;;;;4.33;3.93;;;;;;;13.38;99.28;99410.97;5056373;28;20250;-57
2022/04/06 08:00:24;;;;;;;4.40;4.00;;;;;;;13.41;98.17;99407.44;5056379;28;20195;-57
2022/04/06 08:02:51;;;;;;;6.03;4.03;;;;;;;13.45;98.27;99415.97;5054755;28;20613;-56
2022/04/06 08:05:18;;;;;;;4.20;3.80;;;;;;;13.45;98.53;99400.38;5053461;28;20208;-56
2022/04/06 08:07:44;;;;;;;3.87;3.40;;;;;;;13.48;98.25;99395.09;5049445;28;20198;-57
2022/04/06 08:10:14;;;;;;;4.43;4.03;;;;;;;13.55;98.08;99402.59;5057779;28;20214;-56
2022/04/06 08:12:40;;;;;;;3.97;3.60;;;;;;;13.66;97.63;99404.84;5061943;28;20187;-57
2022/04/06 08:15:06;;;;;;;3.37;3.07;;;;;;;13.77;96.97;99403.59;5060098;28;20270;-57
2022/04/06 08:17:36;;;;;;;3.77;3.37;;;;;;;13.80;96.01;99412.13;5062746;28;20193;-57
2022/04/06 08:20:08;;;;;;;5.60;3.20;;;;;;;13.84;96.00;99408.50;5059563;28;20251;-58
2022/04/06 08:22:34;;;;;;;4.70;3.40;;;;;;;13.84;96.35;99407.69;5061095;28;20216;-56
2022/04/06 08:24:59;;;;;;;5.27;3.57;;;;;;;13.82;95.18;99404.28;5062191;28;20231;-57
2022/04/06 08:27:24;;;;;;;3.70;3.33;;;;;;;13.82;95.01;99406.88;5062467;28;20920;-56
2022/04/06 08:29:50;;;;;;;5.07;2.70;;;;;;;13.94;94.52;99389.94;5061883;28;20207;-56
2022/04/06 08:32:15;;;;;;;2.97;2.70;;;;;;;14.14;94.71;99400.47;5070619;28;20630;-57
2022/04/06 08:34:41;;;;;;;3.23;2.70;;;;;;;14.37;93.45;99397.88;5062556;28;20709;-57
2022/04/06 08:37:08;;;;;;;3.63;2.83;;;;;;;14.56;92.15;99398.88;5053581;28;20292;-57
2022/04/06 08:39:33;;;;;;;2.50;2.30;;;;;;;14.61;91.33;99393.47;5053706;28;20298;-57
2022/04/06 08:42:00;;;;;;;3.17;2.57;;;;;;;14.68;90.41;99387.13;5058768;28;20283;-57
2022/04/06 08:44:26;;;;;;;3.67;2.63;;;;;;;14.68;90.14;99387.13;5059743;28;20198;-57
2022/04/06 08:46:52;;;;;;;2.57;2.37;;;;;;;14.61;90.80;99390.88;5058476;28;20263;-57
2022/04/06 08:49:20;;;;;;;3.40;2.67;;;;;;;14.53;91.10;99390.31;5054137;28;20556;-57
2022/04/06 08:51:47;;;;;;;3.13;2.53;;;;;;;14.57;91.22;99390.16;5059893;28;20191;-57
2022/04/06 08:54:13;;;;;;;2.53;2.33;;;;;;;14.69;90.59;99401.84;5063031;28;20258;-57
2022/04/06 08:56:39;;;;;;;2.87;2.30;;;;;;;14.66;90.23;99393.28;5064547;28;20218;-58
2022/04/06 08:59:05;;;;;;;2.53;2.20;;;;;;;14.84;89.42;99386.50;5079570;28;20220;-59
2022/04/06 09:01:33;;;;;;;1.73;1.60;;;;;;;15.07;89.06;99402.03;5075516;28;20186;-59
2022/04/06 09:04:00;;;;;;;4.63;2.30;;;;;;;15.32;86.70;99398.38;5078325;28;20188;-58
2022/04/06 09:06:29;;;;;;;3.27;2.63;;;;;;;15.51;86.48;99394.97;5083350;28;20183;-58
2022/04/06 09:08:54;;;;;;;2.93;2.50;;;;;;;15.73;86.79;99399.25;5073816;28;20690;-58
2022/04/06 09:11:20;;;;;;;3.30;2.03;;;;;;;15.97;86.28;99392.09;5066501;28;20266;-59
2022/04/06 09:13:48;;;;;;;2.03;1.87;;;;;;;16.08;85.63;99392.47;5072113;28;20664;-63
2022/04/06 09:16:15;;;;;;;2.17;1.97;;;;;;;16.10;85.75;99393.25;5091276;28;20210;-58
2022/04/06 09:18:44;;;;;;;3.57;1.90;;;;;;;16.13;84.69;99390.47;5088365;28;20211;-59
2022/04/06 09:21:14;;;;;;;2.20;2.00;;;;;;;16.10;83.61;99392.38;5085989;28;20184;-58
2022/04/06 09:23:40;;;;;;;2.13;1.93;;;;;;;16.07;83.71;99390.78;5074337;28;21778;-57
2022/04/06 09:26:13;;;;;;;2.60;1.80;;;;;;;16.13;83.79;99389.66;5068857;28;20646;-58
2022/04/06 09:28:40;;;;;;;2.13;1.70;;;;;;;16.30;83.34;99388.84;5063003;28;20206;-58
2022/04/06 09:31:06;;;;;;;2.37;1.90;;;;;;;16.53;80.37;99392.13;5063270;28;20533;-58
2022/04/06 09:33:32;;;;;;;2.23;1.70;;;;;;;16.49;80.28;99385.38;5060192;28;20198;-57
2022/04/06 09:35:58;;;;;;;1.60;1.50;;;;;;;16.60;80.53;99381.31;5054569;28;20218;-57
2022/04/06 09:38:32;;;;;;;2.03;1.40;;;;;;;16.65;78.73;99385.44;5056635;28;20574;-57
2022/04/06 09:41:06;;;;;;;2.00;1.50;;;;;;;16.42;78.70;99377.81;5072573;28;20558;-57
2022/04/06 09:43:35;;;;;;;1.33;1.17;;;;;;;16.49;79.57;99373.13;5057893;28;20198;-57
2022/04/06 09:49:13;;;;;;;1.90;1.10;;;;;;;16.68;79.63;99380.94;5058191;28;20217;-57
2022/04/06 09:51:40;;;;;;;1.30;1.20;;;;;;;16.63;79.54;99374.25;5064891;28;20189;-58
2022/04/06 09:54:08;;;;;;;1.30;1.20;;;;;;;16.56;79.87;99366.72;5057951;28;20358;-57
2022/04/06 09:56:35;;;;;;;1.30;1.20;;;;;;;16.49;80.63;99367.09;5055315;28;20210;-57
2022/04/06 09:59:02;;;;;;;2.53;1.50;;;;;;;16.36;80.12;99366.81;5061526;28;20298;-58
2022/04/06 10:01:58;;;;;;;1.70;1.50;;;;;;;16.37;80.15;99363.28;5057897;28;20190;-57
2022/04/06 10:04:25;;;;;;;1.53;1.10;;;;;;;16.45;80.45;99358.56;5045676;28;20198;-58
2022/04/06 10:06:51;;;;;;;2.37;1.47;;;;;;;16.48;80.19;99360.16;5055297;28;20201;-59
2022/04/06 10:09:16;;;;;;;1.50;1.40;;;;;;;16.44;78.63;99355.09;5055313;28;20202;-58
2022/04/06 10:11:42;;;;;;;1.40;1.30;;;;;;;16.28;78.89;99354.13;5055769;28;20226;-58
2022/04/06 10:14:10;;;;;;;1.40;1.30;;;;;;;16.19;79.53;99360.63;5055587;28;20190;-58
2022/04/06 10:16:38;;;;;;;1.30;1.20;;;;;;;16.20;79.20;99356.28;5061498;28;20214;-58
2022/04/06 10:19:06;;;;;;;1.97;1.07;;;;;;;16.12;79.47;99339.19;5065067;28;20215;-58
2022/04/06 10:22:00;;;;;;;1.27;1.17;;;;;;;16.06;79.27;99338.63;5060573;28;20210;-57
2022/04/06 10:25:08;;;;;;;1.40;1.30;;;;;;;15.99;79.47;99341.53;5057949;28;20182;-58
2022/04/06 10:27:42;;;;;;;1.57;1.20;;;;;;;16.08;79.13;99339.41;5053916;28;20204;-58
2022/04/06 10:30:13;;;;;;;1.60;1.50;;;;;;;16.27;79.03;99326.31;5053812;28;20218;-58
2022/04/06 10:32:46;;;;;;;1.30;1.20;;;;;;;16.44;78.71;99328.97;5060423;28;20190;-58
2022/04/06 10:35:24;;;;;;;1.33;1.23;;;;;;;16.66;77.81;99325.31;5063237;28;20270;-57
2022/04/06 10:37:50;;;;;;;1.60;1.20;;;;;;;16.95;77.44;99324.78;5052951;28;20662;-57
2022/04/06 10:40:16;;;;;;;3.17;1.57;;;;;;;17.33;77.36;99322.81;5061328;28;20510;-57
2022/04/06 10:42:43;;;;;;;1.57;1.47;;;;;;;17.60;76.77;99317.06;5055630;28;20194;-58
2022/04/06 10:45:27;;;;;;;1.33;1.20;;;;;;;17.82;76.87;99318.50;5059196;28;20181;-58
2022/04/06 10:48:25;;;;;;;1.83;1.67;;;;;;;18.04;76.06;99314.75;5058665;28;20190;-58
2022/04/06 10:50:50;;;;;;;2.17;1.97;;;;;;;18.20;75.76;99322.56;5033081;28;20971;-58
2022/04/06 10:53:19;;;;;;;2.70;2.13;;;;;;;18.31;75.54;99311.50;5061774;28;20277;-57
2022/04/06 10:56:16;;;;;;;2.97;2.17;;;;;;;18.25;75.36;99313.50;5064205;28;20201;-58
2022/04/06 10:59:06;;;;;;;1.90;1.80;;;;;;;18.23;75.18;99310.13;5059832;28;20219;-59
2022/04/06 11:01:33;;;;;;;2.27;1.80;;;;;;;18.08;74.38;99301.38;5064262;28;20220;-56
2022/04/06 11:04:15;;;;;;;1.63;1.53;;;;;;;17.90;74.24;99298.00;5059793;28;20200;-57
2022/04/06 11:06:40;;;;;;;2.50;1.50;;;;;;;17.81;74.29;99301.97;5061538;28;20181;-57
2022/04/06 11:12:17;;;;;;;1.70;1.60;;;;;;;17.72;74.72;99293.75;5061567;28;20242;-59
2022/04/06 11:14:45;;;;;;;1.60;1.50;;;;;;;17.76;74.42;99290.06;5054930;28;20185;-58
2022/04/06 11:17:37;;;;;;;1.70;1.60;;;;;;;18.01;73.68;99286.09;5064496;28;20223;-58
2022/04/06 11:20:16;;;;;;;1.70;1.23;;;;;;;18.38;72.19;99278.75;5064001;28;20228;-58
2022/04/06 11:22:44;;;;;;;1.50;1.40;;;;;;;18.65;71.96;99280.72;5075813;28;20200;-58
2022/04/06 11:25:22;;;;;;;3.60;1.13;;;;;;;18.87;71.15;99275.88;5067342;28;20657;-57
2022/04/06 11:27:49;;;;;;;2.10;1.83;;;;;;;19.11;71.09;99270.16;5065200;28;20196;-57
2022/04/06 11:30:19;;;;;;;2.43;1.20;;;;;;;19.23;70.85;99270.34;5064147;28;20279;-63
2022/04/06 11:32:55;;;;;;;1.93;1.50;;;;;;;19.34;69.83;99263.50;5059451;28;20554;-57
2022/04/06 11:35:26;;;;;;;1.37;1.20;;;;;;;19.33;69.63;99259.19;5062674;28;20230;-57
2022/04/06 11:37:51;;;;;;;1.70;1.60;;;;;;;19.32;69.62;99240.91;5072491;28;20663;-57
2022/04/06 11:40:20;;;;;;;1.53;1.30;;;;;;;19.38;69.08;99245.78;5060819;28;20228;-58